createdAt,value
2022-11-01T00:18:55.136Z,9.84
2022-11-01T00:37:54.667Z,9.73
2022-11-01T00:58:48.988Z,9.6
2022-11-01T01:19:30.426Z,9.73
2022-11-01T01:38:55.633Z,9.71
2022-11-01T01:58:51.666Z,9.68
2022-11-01T02:18:45.555Z,9.77
2022-11-01T02:38:40.491Z,9.83
2022-11-01T02:58:32.055Z,9.79
2022-11-01T03:19:02.043Z,9.77
2022-11-01T03:38:33.738Z,9.73
2022-11-01T03:58:19.938Z,9.64
2022-11-01T04:17:53.056Z,9.59
2022-11-01T04:39:03.290Z,9.43
2022-11-01T04:58:39.823Z,9.41
2022-11-01T05:18:33.774Z,9.57
2022-11-01T05:38:12.983Z,9.71
2022-11-01T05:58:46.210Z,9.88
2022-11-01T06:18:24.920Z,9.96
2022-11-01T06:37:33.440Z,9.86
2022-11-01T06:58:31.955Z,10.14
2022-11-01T07:18:09.694Z,10.64
2022-11-01T07:38:21.088Z,11.63
2022-11-01T07:58:14.082Z,12.06
2022-11-01T08:17:47.323Z,12.36
2022-11-01T08:39:18.236Z,12.56
2022-11-01T08:58:27.368Z,13.38
2022-11-01T09:19:01.837Z,14.47
2022-11-01T09:38:56.001Z,15.11
2022-11-01T09:58:10.780Z,15.88
2022-11-01T10:17:16.134Z,16.46
2022-11-01T10:38:49.868Z,16.63
2022-11-01T10:59:14.318Z,16.5
2022-11-01T11:18:06.091Z,16.76
2022-11-01T11:38:28.083Z,16.81
2022-11-01T11:59:08.593Z,16.94
2022-11-01T12:18:37.098Z,16.68
2022-11-01T12:37:53.544Z,17.16
2022-11-01T12:58:36.476Z,17.61
2022-11-01T13:18:39.800Z,17.21
2022-11-01T13:38:03.614Z,16.7
2022-11-01T13:58:34.603Z,17.52
2022-11-01T14:19:25.971Z,17.35
2022-11-01T14:38:47.591Z,16.8
2022-11-01T14:58:28.692Z,16.42
2022-11-01T15:17:37.673Z,15.8
2022-11-01T15:38:24.078Z,15.07
2022-11-01T15:58:48.852Z,14.41
2022-11-01T16:18:17.228Z,13.63
2022-11-01T16:38:31.779Z,12.91
2022-11-01T16:58:49.508Z,12.23
2022-11-01T17:18:02.381Z,11.68
2022-11-01T17:38:29.909Z,11.19
2022-11-01T17:58:35.515Z,10.71
2022-11-01T18:18:31.020Z,10.31
2022-11-01T18:38:53.566Z,10.05
2022-11-01T18:58:23.152Z,9.77
2022-11-01T19:18:54.033Z,9.45
2022-11-01T19:38:35.866Z,9.24
2022-11-01T19:59:19.485Z,8.95
2022-11-01T20:17:30.379Z,8.68
2022-11-01T20:37:57.456Z,8.49
2022-11-01T20:57:40.145Z,8.22
2022-11-01T21:18:31.090Z,8.01
2022-11-01T21:37:45.183Z,7.78
2022-11-01T21:58:45.587Z,7.52
2022-11-01T22:17:33.061Z,7.22
2022-11-01T22:38:55.745Z,7.07
2022-11-01T22:59:10.620Z,6.86
2022-11-01T23:17:57.918Z,6.71
2022-11-01T23:39:16.702Z,6.55
2022-11-01T23:58:07.431Z,6.37
